createdAt,value
2023-04-08T00:00:49.768Z,17.80
2023-04-08T00:03:19.381Z,17.70
2023-04-08T00:05:47.435Z,21.10
2023-04-08T00:08:15.430Z,19.17
2023-04-08T00:10:43.692Z,19.73
2023-04-08T00:13:11.702Z,20.97
2023-04-08T00:15:41.699Z,18.67
2023-04-08T00:18:09.737Z,21.00
2023-04-08T00:20:37.758Z,18.70
2023-04-08T00:23:05.679Z,19.07
2023-04-08T00:25:33.721Z,19.47
2023-04-08T00:28:01.718Z,20.90
2023-04-08T00:30:29.796Z,20.67
2023-04-08T00:32:59.319Z,19.40
2023-04-08T00:35:27.421Z,17.17
2023-04-08T00:37:55.364Z,16.10
2023-04-08T00:40:23.373Z,23.80
2023-04-08T00:42:51.367Z,17.90
2023-04-08T00:45:19.360Z,20.03
2023-04-08T00:47:52.497Z,17.33
2023-04-08T00:50:22.346Z,16.13
2023-04-08T00:52:50.342Z,17.53
2023-04-08T00:55:18.399Z,16.57
2023-04-08T00:57:47.602Z,20.63
2023-04-08T01:00:17.094Z,18.37
2023-04-08T01:02:52.589Z,17.93
2023-04-08T01:05:31.891Z,19.33
2023-04-08T01:08:03.028Z,15.63
2023-04-08T01:10:34.524Z,18.23
2023-04-08T01:13:08.318Z,18.77
2023-04-08T01:15:41.217Z,20.40
2023-04-08T01:18:13.478Z,17.23
2023-04-08T01:20:44.172Z,18.57
2023-04-08T01:23:19.165Z,17.50
2023-04-08T01:25:50.607Z,15.50
2023-04-08T01:28:21.792Z,18.07
2023-04-08T01:30:51.261Z,20.00
2023-04-08T01:33:22.257Z,14.97
2023-04-08T01:35:50.766Z,17.37
2023-04-08T01:38:21.059Z,17.23
2023-04-08T01:40:52.302Z,21.50
2023-04-08T01:43:21.240Z,18.20
2023-04-08T01:45:50.564Z,15.80
2023-04-08T01:48:20.235Z,39.93
2023-04-08T01:50:48.704Z,21.40
2023-04-08T01:53:16.744Z,18.30
2023-04-08T01:55:46.544Z,19.30
2023-04-08T01:58:20.962Z,17.20
2023-04-08T02:00:49.439Z,17.80
2023-04-08T02:03:19.928Z,18.10
2023-04-08T02:05:48.229Z,17.33
2023-04-08T02:08:16.339Z,19.83
2023-04-08T02:10:44.310Z,23.43
2023-04-08T02:13:12.226Z,29.10
2023-04-08T02:15:50.105Z,30.97
2023-04-08T02:18:23.425Z,20.63
2023-04-08T02:20:56.902Z,24.20
2023-04-08T02:23:29.352Z,22.20
2023-04-08T02:25:58.104Z,28.33
2023-04-08T02:28:29.981Z,19.83
2023-04-08T02:31:00.728Z,21.07
2023-04-08T02:33:29.529Z,23.13
2023-04-08T02:35:59.838Z,21.37
2023-04-08T02:38:30.606Z,16.47
2023-04-08T02:40:58.764Z,19.83
2023-04-08T02:43:31.796Z,23.60
2023-04-08T02:46:03.700Z,34.00
2023-04-08T02:48:32.296Z,21.83
2023-04-08T02:51:00.523Z,24.60
2023-04-08T02:53:28.552Z,25.03
2023-04-08T02:55:56.620Z,24.80
2023-04-08T02:58:24.567Z,27.83
2023-04-08T03:00:52.655Z,21.73
2023-04-08T03:03:27.562Z,24.63
2023-04-08T03:05:55.726Z,21.40
2023-04-08T03:08:23.785Z,18.40
2023-04-08T03:10:51.957Z,25.33
2023-04-08T03:13:19.953Z,28.13
2023-04-08T03:15:47.920Z,24.93
2023-04-08T03:18:15.886Z,23.43
2023-04-08T03:20:45.236Z,33.03
2023-04-08T03:23:13.161Z,25.30
2023-04-08T03:25:41.143Z,27.87
2023-04-08T03:28:09.135Z,27.00
2023-04-08T03:30:37.499Z,26.80
2023-04-08T03:33:08.006Z,32.10
2023-04-08T03:35:37.314Z,23.10
2023-04-08T03:38:06.852Z,27.97
2023-04-08T03:40:34.824Z,27.03
2023-04-08T03:43:02.740Z,26.77
2023-04-08T03:45:30.703Z,30.83
2023-04-08T03:47:58.736Z,27.53
2023-04-08T03:50:26.910Z,25.13
2023-04-08T03:52:54.833Z,32.23
2023-04-08T03:55:24.395Z,41.03
2023-04-08T03:57:52.345Z,25.23
2023-04-08T04:00:20.337Z,30.50
2023-04-08T04:02:48.422Z,32.23
2023-04-08T04:05:16.423Z,29.53
2023-04-08T04:07:44.342Z,26.93
2023-04-08T04:10:12.757Z,30.97
2023-04-08T04:12:42.087Z,34.43
2023-04-08T04:15:10.772Z,34.43
2023-04-08T04:17:38.728Z,33.50
2023-04-08T04:20:07.622Z,33.33
2023-04-08T04:22:35.617Z,29.87
2023-04-08T04:25:03.573Z,31.57
2023-04-08T04:27:31.537Z,37.47
2023-04-08T04:30:02.187Z,35.80
2023-04-08T04:32:30.308Z,35.37
2023-04-08T04:34:58.348Z,30.60
2023-04-08T04:37:26.398Z,34.30
2023-04-08T04:39:54.321Z,41.57
2023-04-08T04:42:22.330Z,30.90
2023-04-08T04:44:50.303Z,36.30
2023-04-08T04:47:19.749Z,41.63
2023-04-08T04:49:48.290Z,36.63
2023-04-08T04:52:16.302Z,38.40
2023-04-08T04:54:44.259Z,32.53
2023-04-08T04:57:12.242Z,31.20
2023-04-08T04:59:40.509Z,34.37
2023-04-08T05:02:08.618Z,29.50
2023-04-08T05:04:38.013Z,33.30
2023-04-08T05:07:06.195Z,37.40
2023-04-08T05:09:34.180Z,32.70
2023-04-08T05:12:02.164Z,34.17
2023-04-08T05:14:30.799Z,29.13
2023-04-08T05:16:58.887Z,28.93
2023-04-08T05:19:26.845Z,39.57
2023-04-08T05:21:56.271Z,32.63
2023-04-08T05:24:24.212Z,34.13
2023-04-08T05:26:53.333Z,33.37
2023-04-08T05:29:21.936Z,32.37
2023-04-08T05:31:49.966Z,34.17
2023-04-08T05:34:22.866Z,34.27
2023-04-08T05:36:52.719Z,32.30
2023-04-08T05:39:22.104Z,37.80
2023-04-08T05:41:50.077Z,30.13
2023-04-08T05:50:11.197Z,34.33
2023-04-08T05:52:42.804Z,31.10
2023-04-08T05:55:12.741Z,36.83
2023-04-08T05:57:41.096Z,39.67
2023-04-08T06:00:11.353Z,35.77
2023-04-08T06:02:39.979Z,38.47
2023-04-08T06:05:08.523Z,39.17
2023-04-08T06:07:36.476Z,39.43
2023-04-08T06:10:05.233Z,37.37
2023-04-08T06:12:36.720Z,41.17
2023-04-08T06:15:05.032Z,42.93
2023-04-08T06:17:32.985Z,57.97
2023-04-08T06:20:03.556Z,49.00
2023-04-08T06:22:31.728Z,55.77
2023-04-08T06:24:59.702Z,53.23
2023-04-08T06:27:27.714Z,54.27
2023-04-08T06:29:57.269Z,43.37
2023-04-08T06:32:25.404Z,39.83
2023-04-08T06:34:53.353Z,54.13
2023-04-08T06:37:21.493Z,52.50
2023-04-08T06:39:49.508Z,46.63
2023-04-08T06:42:17.471Z,47.03
2023-04-08T06:44:58.113Z,39.37
2023-04-08T06:47:26.196Z,44.80
2023-04-08T06:49:54.394Z,47.00
2023-04-08T06:52:22.433Z,46.33
2023-04-08T06:54:50.369Z,44.90
2023-04-08T06:57:18.340Z,38.90
2023-04-08T06:59:46.739Z,36.30
2023-04-08T07:02:16.649Z,32.60
2023-04-08T07:04:46.722Z,31.80
2023-04-08T07:07:15.204Z,32.03
2023-04-08T07:09:45.876Z,41.27
2023-04-08T07:12:14.007Z,37.37
2023-04-08T07:17:57.942Z,36.60
2023-04-08T07:20:28.080Z,30.70
2023-04-08T07:22:56.042Z,43.10
2023-04-08T07:25:23.966Z,40.30
2023-04-08T07:27:52.854Z,35.53
2023-04-08T07:30:21.007Z,32.60
2023-04-08T07:32:49.037Z,40.00
2023-04-08T07:35:23.970Z,35.37
2023-04-08T07:37:55.008Z,27.57
2023-04-08T07:40:22.976Z,38.97
2023-04-08T07:42:51.072Z,36.47
2023-04-08T07:49:03.580Z,33.17
2023-04-08T07:51:31.611Z,35.10
2023-04-08T07:54:01.096Z,40.17
2023-04-08T07:59:17.631Z,30.70
2023-04-08T08:01:48.994Z,29.17
2023-04-08T08:04:17.199Z,29.77
2023-04-08T08:06:45.693Z,25.43
2023-04-08T08:09:15.305Z,28.33
2023-04-08T08:11:44.435Z,28.90
2023-04-08T08:14:13.870Z,20.37
2023-04-08T08:16:42.566Z,22.40
2023-04-08T08:19:12.254Z,24.60
2023-04-08T08:21:40.462Z,22.60
2023-04-08T08:24:08.434Z,22.33
2023-04-08T08:26:38.030Z,20.30
2023-04-08T08:29:08.368Z,20.90
2023-04-08T08:31:36.448Z,18.20
2023-04-08T08:34:04.456Z,23.80
2023-04-08T08:36:33.535Z,19.93
2023-04-08T08:39:02.763Z,21.80
2023-04-08T08:41:35.143Z,18.80
2023-04-08T08:44:06.419Z,26.13
2023-04-08T08:46:35.352Z,17.47
2023-04-08T08:49:03.484Z,22.23
2023-04-08T08:51:32.740Z,19.17
2023-04-08T08:54:03.970Z,20.03
2023-04-08T08:56:33.945Z,20.13
2023-04-08T08:59:01.967Z,18.30
2023-04-08T09:01:35.980Z,17.60
2023-04-08T09:04:17.265Z,20.70
2023-04-08T09:06:46.603Z,19.73
2023-04-08T09:12:21.407Z,20.17
2023-04-08T09:14:49.648Z,20.50
2023-04-08T09:17:33.377Z,25.87
2023-04-08T09:20:14.953Z,22.77
2023-04-08T09:22:59.909Z,24.30
2023-04-08T09:25:29.051Z,21.37
2023-04-08T09:27:57.140Z,25.23
2023-04-08T09:30:27.324Z,20.97
2023-04-08T09:32:57.757Z,31.23
2023-04-08T09:35:26.579Z,23.00
2023-04-08T09:37:54.589Z,21.73
2023-04-08T09:40:25.207Z,23.47
2023-04-08T09:42:56.209Z,16.90
2023-04-08T09:45:27.912Z,20.97
2023-04-08T09:48:05.691Z,23.00
2023-04-08T09:50:41.319Z,18.77
2023-04-08T09:53:15.321Z,20.57
2023-04-08T09:55:47.405Z,26.00
2023-04-08T09:58:20.708Z,23.47
2023-04-08T10:00:51.455Z,23.27
2023-04-08T10:03:30.852Z,24.50
2023-04-08T10:06:02.255Z,21.17
2023-04-08T10:08:32.917Z,21.83
2023-04-08T10:11:01.316Z,23.10
2023-04-08T10:13:29.831Z,27.70
2023-04-08T10:16:22.940Z,24.97
2023-04-08T10:18:55.775Z,22.97
2023-04-08T10:21:38.081Z,21.83
2023-04-08T10:24:08.696Z,23.10
2023-04-08T10:26:41.486Z,19.10
2023-04-08T10:29:42.780Z,19.37
2023-04-08T10:32:28.527Z,16.60
2023-04-08T10:34:57.972Z,18.73
2023-04-08T10:37:26.208Z,18.50
2023-04-08T10:39:55.800Z,19.57
2023-04-08T10:42:29.452Z,11.13
2023-04-08T10:45:02.676Z,13.37
2023-04-08T10:47:30.682Z,14.57
2023-04-08T10:50:00.006Z,16.63
2023-04-08T10:52:28.084Z,14.33
2023-04-08T10:54:56.094Z,13.33
2023-04-08T10:57:27.214Z,11.73
2023-04-08T10:59:55.156Z,12.43
2023-04-08T11:02:23.340Z,10.70
2023-04-08T11:04:54.861Z,8.80
2023-04-08T11:07:27.070Z,12.03
2023-04-08T11:09:55.890Z,10.60
2023-04-08T11:12:24.065Z,12.63
2023-04-08T11:14:54.596Z,9.17
2023-04-08T11:17:23.127Z,8.77
2023-04-08T11:19:51.098Z,12.30
2023-04-08T11:22:19.105Z,10.33
2023-04-08T11:24:48.850Z,8.73
2023-04-08T11:27:17.149Z,8.67
2023-04-08T11:29:48.104Z,11.60
2023-04-08T11:32:16.357Z,9.40
2023-04-08T11:34:44.303Z,11.17
2023-04-08T11:37:12.589Z,9.47
2023-04-08T11:39:43.835Z,8.73
2023-04-08T11:42:27.864Z,9.77
2023-04-08T11:44:56.013Z,9.97
2023-04-08T11:47:31.917Z,13.30
2023-04-08T11:50:01.441Z,9.10
2023-04-08T11:52:42.898Z,12.17
2023-04-08T11:55:11.773Z,11.10
2023-04-08T11:57:41.244Z,11.93
2023-04-08T12:00:09.986Z,11.37
2023-04-08T12:02:41.736Z,10.47
2023-04-08T12:05:10.767Z,10.20
2023-04-08T12:07:38.807Z,9.77
2023-04-08T12:10:08.086Z,9.63
2023-04-08T12:12:36.316Z,8.60
2023-04-08T12:15:06.651Z,9.20
2023-04-08T12:17:34.742Z,8.27
2023-04-08T12:20:04.230Z,10.10
2023-04-08T12:22:32.265Z,11.20
2023-04-08T12:25:00.266Z,8.90
2023-04-08T12:27:28.172Z,5.87
2023-04-08T12:29:56.516Z,8.00
2023-04-08T12:32:25.992Z,6.47
2023-04-08T12:34:54.326Z,8.60
2023-04-08T12:37:22.317Z,9.90
2023-04-08T12:39:50.283Z,11.13
2023-04-08T12:42:18.311Z,8.57
2023-04-08T12:44:46.341Z,7.63
2023-04-08T12:47:14.292Z,7.40
2023-04-08T12:56:13.549Z,8.20
2023-04-08T12:58:41.490Z,6.50
2023-04-08T13:01:09.473Z,6.40
2023-04-08T13:03:37.533Z,5.17
2023-04-08T13:06:05.604Z,6.40
2023-04-08T13:08:33.523Z,7.70
2023-04-08T13:11:01.478Z,5.80
2023-04-08T13:13:30.825Z,8.17
2023-04-08T13:15:58.901Z,5.83
2023-04-08T13:18:27.116Z,8.37
2023-04-08T13:20:55.340Z,7.30
2023-04-08T13:23:23.282Z,4.90
2023-04-08T13:25:51.444Z,5.70
2023-04-08T13:28:19.396Z,5.60
2023-04-08T13:30:48.743Z,5.27
2023-04-08T13:33:17.214Z,8.53
2023-04-08T13:35:45.240Z,7.33
2023-04-08T13:38:13.727Z,7.30
2023-04-08T13:40:42.245Z,6.77
2023-04-08T13:43:10.198Z,8.53
2023-04-08T13:45:38.789Z,6.13
2023-04-08T13:48:08.270Z,6.50
2023-04-08T13:50:40.293Z,8.10
2023-04-08T13:53:08.287Z,7.73
2023-04-08T13:55:36.238Z,9.17
2023-04-08T13:58:11.225Z,10.90
2023-04-08T14:00:45.380Z,5.30
2023-04-08T14:03:14.875Z,8.77
2023-04-08T14:05:42.826Z,7.60
2023-04-08T14:08:11.070Z,7.10
2023-04-08T14:10:39.017Z,7.00
2023-04-08T14:13:06.960Z,5.70
2023-04-08T14:15:34.921Z,7.73
2023-04-08T14:18:02.963Z,8.10
2023-04-08T14:20:32.594Z,5.80
2023-04-08T14:23:00.618Z,6.73
2023-04-08T14:25:28.602Z,7.27
2023-04-08T14:27:58.605Z,8.60
2023-04-08T14:30:27.597Z,8.30
2023-04-08T14:32:55.746Z,12.80
2023-04-08T14:35:23.783Z,8.93
2023-04-08T14:37:53.089Z,9.27
2023-04-08T14:40:21.352Z,7.67
2023-04-08T14:42:49.901Z,8.40
2023-04-08T14:45:18.545Z,12.00
2023-04-08T14:47:47.052Z,6.03
2023-04-08T14:50:18.849Z,7.33
2023-04-08T14:52:48.522Z,11.87
2023-04-08T14:55:18.034Z,11.27
2023-04-08T14:57:45.990Z,10.50
2023-04-08T15:00:14.808Z,8.53
2023-04-08T15:02:42.897Z,10.20
2023-04-08T15:05:10.987Z,7.87
2023-04-08T15:07:39.080Z,12.27
2023-04-08T15:10:08.230Z,10.77
2023-04-08T15:12:37.530Z,10.47
2023-04-08T15:15:06.484Z,9.50
2023-04-08T15:17:34.629Z,9.70
2023-04-08T15:20:02.698Z,8.37
2023-04-08T15:22:30.630Z,8.60
2023-04-08T15:24:58.645Z,11.40
2023-04-08T15:27:26.606Z,11.40
2023-04-08T15:29:55.987Z,10.77
2023-04-08T15:32:24.086Z,12.70
2023-04-08T15:34:52.647Z,10.93
2023-04-08T15:37:22.540Z,12.77
2023-04-08T15:39:50.458Z,18.37
2023-04-08T15:42:18.427Z,13.37
2023-04-08T15:44:46.400Z,13.30
2023-04-08T15:47:16.175Z,11.33
2023-04-08T15:49:44.162Z,11.57
2023-04-08T15:52:12.278Z,11.67
2023-04-08T15:54:40.327Z,14.07
2023-04-08T15:57:08.306Z,10.10
2023-04-08T15:59:36.575Z,20.33
2023-04-08T16:02:04.799Z,14.47
2023-04-08T16:04:34.398Z,13.40
2023-04-08T16:07:02.400Z,12.00
2023-04-08T16:09:31.250Z,11.43
2023-04-08T16:11:59.875Z,18.03
2023-04-08T16:14:28.128Z,14.93
2023-04-08T16:16:57.504Z,12.93
2023-04-08T16:19:26.193Z,13.90
2023-04-08T16:21:55.485Z,15.53
2023-04-08T16:24:23.419Z,16.57
2023-04-08T16:26:51.554Z,11.47
2023-04-08T16:29:19.528Z,12.90
2023-04-08T16:31:47.465Z,11.00
2023-04-08T16:34:15.519Z,13.53
2023-04-08T16:36:43.656Z,12.17
2023-04-08T16:39:13.394Z,13.97
2023-04-08T16:41:41.331Z,11.33
2023-04-08T16:44:09.276Z,10.17
2023-04-08T16:46:37.964Z,10.50
2023-04-08T16:49:05.961Z,8.77
2023-04-08T16:51:34.331Z,9.17
2023-04-08T16:54:02.446Z,8.77
2023-04-08T16:56:31.982Z,8.00
2023-04-08T16:59:02.100Z,10.60
2023-04-08T17:01:30.078Z,8.90
2023-04-08T17:03:58.158Z,7.07
2023-04-08T17:06:27.094Z,9.60
2023-04-08T17:08:55.055Z,10.47
2023-04-08T17:11:23.071Z,8.33
2023-04-08T17:13:52.644Z,6.43
2023-04-08T17:16:21.053Z,6.87
2023-04-08T17:18:49.274Z,9.27
2023-04-08T17:21:17.550Z,15.00
2023-04-08T17:23:45.609Z,17.50
2023-04-08T17:26:13.770Z,19.03
2023-04-08T17:28:41.811Z,19.37
2023-04-08T17:31:11.278Z,23.07
2023-04-08T17:33:39.249Z,23.10
2023-04-08T17:36:08.479Z,20.97
2023-04-08T17:38:39.654Z,20.50
2023-04-08T17:41:08.147Z,22.87
2023-04-08T17:43:36.151Z,16.57
2023-04-08T17:46:04.442Z,20.13
2023-04-08T17:48:33.730Z,17.67
2023-04-08T17:51:02.577Z,20.60
2023-04-08T17:53:30.829Z,20.03
2023-04-08T17:55:58.783Z,21.10
2023-04-08T17:58:27.274Z,24.77
2023-04-08T18:00:55.277Z,21.37
2023-04-08T18:03:23.519Z,19.87
2023-04-08T18:05:55.088Z,26.10
2023-04-08T18:08:23.161Z,21.10
2023-04-08T18:10:51.117Z,22.13
2023-04-08T18:13:19.251Z,22.33
2023-04-08T18:15:47.192Z,22.43
2023-04-08T18:18:19.511Z,22.43
2023-04-08T18:20:47.463Z,21.00
2023-04-08T18:23:16.875Z,19.97
2023-04-08T18:25:50.551Z,23.20
2023-04-08T18:28:18.561Z,27.27
2023-04-08T18:30:46.642Z,20.30
2023-04-08T18:33:14.598Z,20.60
2023-04-08T18:35:43.207Z,22.97
2023-04-08T18:38:11.310Z,18.67
2023-04-08T18:40:40.691Z,17.90
2023-04-08T18:43:09.526Z,15.70
2023-04-08T18:45:37.522Z,22.43
2023-04-08T18:48:05.646Z,20.30
2023-04-08T18:50:33.660Z,18.40
2023-04-08T18:53:01.774Z,19.23
2023-04-08T18:55:30.315Z,21.27
2023-04-08T18:57:59.650Z,21.70
2023-04-08T19:00:27.591Z,22.43
2023-04-08T19:02:56.383Z,20.33
2023-04-08T19:05:25.438Z,20.50
2023-04-08T19:07:53.403Z,21.40
2023-04-08T19:10:23.513Z,24.90
2023-04-08T19:12:51.692Z,25.67
2023-04-08T19:15:20.997Z,25.40
2023-04-08T19:17:49.010Z,25.70
2023-04-08T19:20:17.026Z,26.70
2023-04-08T19:22:46.683Z,26.30
2023-04-08T19:25:14.680Z,25.70
2023-04-08T19:27:42.804Z,21.17
2023-04-08T19:30:11.277Z,23.40
2023-04-08T19:32:40.788Z,23.70
2023-04-08T19:35:12.030Z,22.53
2023-04-08T19:37:40.033Z,23.50
2023-04-08T19:40:09.336Z,24.07
2023-04-08T19:42:37.333Z,24.63
2023-04-08T19:45:06.852Z,19.43
2023-04-08T19:47:34.818Z,26.57
2023-04-08T19:50:04.323Z,26.13
2023-04-08T19:52:33.026Z,24.30
2023-04-08T19:55:01.034Z,21.30
2023-04-08T19:57:29.271Z,25.33
2023-04-08T19:59:57.242Z,24.60
2023-04-08T20:02:25.767Z,24.80
2023-04-08T20:04:54.428Z,23.37
2023-04-08T20:07:23.718Z,22.53
2023-04-08T20:09:51.657Z,24.37
2023-04-08T20:12:19.650Z,24.93
2023-04-08T20:14:47.842Z,21.70
2023-04-08T20:17:16.476Z,20.20
2023-04-08T20:19:44.436Z,21.60
2023-04-08T20:22:12.373Z,24.63
2023-04-08T20:24:41.750Z,23.43
2023-04-08T20:27:09.793Z,20.80
2023-04-08T20:29:37.715Z,23.63
2023-04-08T20:32:06.239Z,22.20
2023-04-08T20:34:34.285Z,24.40
2023-04-08T20:37:02.960Z,20.50
2023-04-08T20:39:31.741Z,18.13
2023-04-08T20:42:01.638Z,22.77
2023-04-08T20:44:29.699Z,25.90
2023-04-08T20:46:57.920Z,23.80
2023-04-08T20:49:26.634Z,23.20
2023-04-08T20:51:54.575Z,22.77
2023-04-08T20:54:22.595Z,22.30
2023-04-08T20:56:50.572Z,27.00
2023-04-08T20:59:19.899Z,26.50
2023-04-08T21:01:48.116Z,21.83
2023-04-08T21:04:16.650Z,17.57
2023-04-08T21:06:44.597Z,25.93
2023-04-08T21:09:14.855Z,21.07
2023-04-08T21:11:42.704Z,23.90
2023-04-08T21:14:10.598Z,23.43
2023-04-08T21:16:39.952Z,23.63
2023-04-08T21:19:07.976Z,21.53
2023-04-08T21:21:35.974Z,18.30
2023-04-08T21:24:06.826Z,20.33
2023-04-08T21:26:34.783Z,22.07
2023-04-08T21:29:02.747Z,19.63
2023-04-08T21:31:31.507Z,25.60
2023-04-08T21:34:00.873Z,19.97
2023-04-08T21:36:28.910Z,22.50
2023-04-08T21:38:57.370Z,20.20
2023-04-08T21:41:25.315Z,23.27
2023-04-08T21:43:53.608Z,25.77
2023-04-08T21:46:21.825Z,25.77
2023-04-08T21:48:50.072Z,24.80
2023-04-08T21:51:19.893Z,26.07
2023-04-08T21:53:47.858Z,23.47
2023-04-08T21:56:17.478Z,28.77
2023-04-08T21:58:45.492Z,25.50
2023-04-08T22:01:13.559Z,28.23
2023-04-08T22:03:41.645Z,21.40
2023-04-08T22:06:12.766Z,24.50
2023-04-08T22:08:46.258Z,24.03
2023-04-08T22:11:14.186Z,27.60
2023-04-08T22:13:42.120Z,27.17
2023-04-08T22:16:11.027Z,30.93
2023-04-08T22:18:39.342Z,25.80
2023-04-08T22:21:07.572Z,24.23
2023-04-08T22:23:35.535Z,30.10
2023-04-08T22:26:04.996Z,25.67
2023-04-08T22:28:34.289Z,20.10
2023-04-08T22:31:02.333Z,24.60
2023-04-08T22:33:30.295Z,26.13
2023-04-08T22:35:58.465Z,23.73
2023-04-08T22:38:26.596Z,23.07
2023-04-08T22:40:54.545Z,24.53
2023-04-08T22:43:23.880Z,30.13
2023-04-08T22:45:52.265Z,26.00
2023-04-08T22:48:20.344Z,23.20
2023-04-08T22:50:48.318Z,25.73
2023-04-08T22:53:16.276Z,26.63
2023-04-08T22:55:44.213Z,26.70
2023-04-08T22:58:12.803Z,27.33
2023-04-08T23:00:42.206Z,25.90
2023-04-08T23:03:10.417Z,31.83
2023-04-08T23:05:38.531Z,23.07
2023-04-08T23:08:06.603Z,28.93
2023-04-08T23:10:34.609Z,24.57
2023-04-08T23:13:02.546Z,25.77
2023-04-08T23:15:30.961Z,21.77
2023-04-08T23:18:00.395Z,27.70
2023-04-08T23:20:28.439Z,31.37
2023-04-08T23:22:56.489Z,26.80
2023-04-08T23:25:24.430Z,24.30
2023-04-08T23:27:52.400Z,28.57
2023-04-08T23:30:20.504Z,30.23
2023-04-08T23:32:48.505Z,24.97
2023-04-08T23:35:17.877Z,28.50
2023-04-08T23:37:46.278Z,26.80
2023-04-08T23:40:14.324Z,27.37
2023-04-08T23:42:42.248Z,32.93
2023-04-08T23:45:11.080Z,33.03
2023-04-08T23:47:39.093Z,26.50
2023-04-08T23:50:08.592Z,24.23
2023-04-08T23:52:37.901Z,25.60
2023-04-08T23:55:06.617Z,27.70
2023-04-08T23:57:34.609Z,20.87
